Terminal Aerodrome Forecast
Issued by NWS

Home | Current Version | Previous Version | Text Only | Print | Product List | Glossary On
Versions: 1 2 3 4 5 6 7 8 9 10 11 12 13 14 15 16 17 18 19 20
000
FTUS43 KBIS 261100
TAFDIK
TAF
KDIK 261132Z 2612/2712 32008KT P6SM OVC015
      TEMPO 2612/2616 SCT015 OVC025
     FM261600 30008KT P6SM SCT030 BKN200
     FM270000 22006KT P6SM SCT015 BKN050
     FM270400 26007KT P6SM SCT009 BKN025=

USA.gov is the U.S. government's official web portal to all federal, state and local government web resources and services.